createdAt,value
2022-12-19T00:02:35.839Z,20.80
2022-12-19T00:05:57.417Z,21.57
2022-12-19T00:09:20.436Z,21.47
2022-12-19T00:12:42.186Z,20.63
2022-12-19T00:16:05.279Z,22.70
2022-12-19T00:19:27.089Z,22.00
2022-12-19T00:22:48.657Z,22.43
2022-12-19T00:26:18.629Z,22.07
2022-12-19T00:29:41.625Z,23.07
2022-12-19T00:33:03.288Z,22.10
2022-12-19T00:36:26.639Z,21.00
2022-12-19T00:39:48.096Z,21.90
2022-12-19T00:43:11.237Z,21.87
2022-12-19T00:46:34.498Z,21.00
2022-12-19T00:49:56.256Z,23.50
2022-12-19T00:53:18.001Z,22.07
2022-12-19T00:56:39.468Z,22.73
2022-12-19T01:00:06.020Z,22.13
2022-12-19T01:03:27.690Z,21.73
2022-12-19T01:06:49.517Z,21.37
2022-12-19T01:10:11.881Z,21.67
2022-12-19T01:13:35.635Z,21.33
2022-12-19T01:17:05.020Z,23.10
2022-12-19T01:20:28.987Z,20.93
2022-12-19T01:23:51.564Z,20.83
2022-12-19T01:27:13.328Z,20.53
2022-12-19T01:30:35.727Z,21.23
2022-12-19T01:34:02.563Z,20.50
2022-12-19T01:37:24.061Z,21.30
2022-12-19T01:40:51.200Z,20.70
2022-12-19T01:44:14.601Z,20.30
2022-12-19T01:47:45.161Z,21.07
2022-12-19T01:51:17.541Z,19.57
2022-12-19T01:54:42.081Z,19.90
2022-12-19T01:58:04.547Z,21.30
2022-12-19T02:01:26.777Z,21.30
2022-12-19T02:04:49.347Z,21.50
2022-12-19T02:08:12.748Z,20.60
2022-12-19T02:11:34.424Z,20.83
2022-12-19T02:15:02.650Z,21.27
2022-12-19T02:18:36.565Z,20.63
2022-12-19T02:22:05.793Z,19.27
2022-12-19T02:25:49.572Z,20.33
2022-12-19T02:29:24.974Z,19.80
2022-12-19T02:32:58.459Z,20.47
2022-12-19T02:36:23.995Z,19.23
2022-12-19T02:39:50.873Z,19.77
2022-12-19T02:43:14.773Z,18.60
2022-12-19T02:46:36.735Z,19.20
2022-12-19T02:49:59.883Z,19.63
2022-12-19T02:53:24.030Z,19.50
2022-12-19T02:56:56.263Z,19.23
2022-12-19T03:00:21.821Z,19.87
2022-12-19T03:03:51.690Z,19.37
2022-12-19T03:07:27.155Z,20.97
2022-12-19T03:10:55.662Z,20.30
2022-12-19T03:14:22.142Z,18.90
2022-12-19T03:17:49.766Z,18.93
2022-12-19T03:21:18.993Z,18.63
2022-12-19T03:24:41.997Z,18.37
2022-12-19T03:28:08.156Z,18.63
2022-12-19T03:31:32.601Z,19.20
2022-12-19T03:35:00.699Z,18.13
2022-12-19T03:38:23.778Z,19.53
2022-12-19T03:42:04.442Z,19.30
2022-12-19T03:45:32.402Z,17.67
2022-12-19T03:48:55.386Z,17.40
2022-12-19T03:52:26.852Z,18.70
2022-12-19T03:55:51.672Z,17.70
2022-12-19T03:59:20.779Z,18.13
2022-12-19T04:02:46.035Z,16.83
2022-12-19T04:06:08.103Z,17.13
2022-12-19T04:09:31.570Z,16.97
2022-12-19T04:12:59.755Z,17.37
2022-12-19T04:16:31.143Z,17.67
2022-12-19T04:19:58.820Z,17.07
2022-12-19T04:23:25.836Z,17.03
2022-12-19T04:26:50.473Z,16.10
2022-12-19T04:30:15.817Z,16.73
2022-12-19T04:33:38.503Z,16.60
2022-12-19T04:37:07.671Z,17.83
2022-12-19T04:40:29.278Z,17.47
2022-12-19T04:43:51.014Z,17.47
2022-12-19T04:47:12.492Z,17.03
2022-12-19T04:50:36.787Z,16.50
2022-12-19T04:53:58.535Z,17.47
2022-12-19T04:57:20.050Z,16.77
2022-12-19T05:00:41.800Z,17.63
2022-12-19T05:04:04.843Z,17.20
2022-12-19T05:07:28.200Z,16.70
2022-12-19T05:10:49.740Z,17.23
2022-12-19T05:14:11.537Z,18.20
2022-12-19T05:17:33.468Z,17.07
2022-12-19T05:20:55.440Z,17.10
2022-12-19T05:24:18.514Z,17.27
2022-12-19T05:27:40.104Z,16.10
2022-12-19T05:31:07.625Z,17.13
2022-12-19T05:34:29.481Z,16.20
2022-12-19T05:37:51.031Z,16.43
2022-12-19T05:41:18.596Z,17.03
2022-12-19T05:44:39.809Z,17.97
2022-12-19T05:48:01.781Z,16.90
2022-12-19T05:51:23.652Z,16.63
2022-12-19T05:54:45.731Z,17.87
2022-12-19T05:58:08.696Z,17.43
2022-12-19T06:01:30.655Z,15.80
2022-12-19T06:04:52.302Z,16.00
2022-12-19T06:08:14.247Z,16.03
2022-12-19T06:11:36.052Z,16.23
2022-12-19T06:14:59.087Z,16.80
2022-12-19T06:18:20.660Z,17.13
2022-12-19T06:21:47.976Z,15.63
2022-12-19T06:25:10.902Z,17.57
2022-12-19T06:28:33.305Z,16.13
2022-12-19T06:31:56.114Z,16.17
2022-12-19T06:35:17.664Z,17.13
2022-12-19T06:38:39.103Z,16.67
2022-12-19T06:42:17.686Z,16.90
2022-12-19T06:45:39.145Z,15.90
2022-12-19T06:49:02.309Z,16.53
2022-12-19T06:52:23.949Z,16.63
2022-12-19T06:55:49.436Z,16.80
2022-12-19T06:59:13.929Z,15.90
2022-12-19T07:02:35.907Z,14.83
2022-12-19T07:05:58.726Z,16.50
2022-12-19T07:09:21.589Z,17.10
2022-12-19T07:12:42.964Z,18.50
2022-12-19T07:16:06.614Z,17.70
2022-12-19T07:19:29.369Z,17.47
2022-12-19T07:22:52.456Z,16.00
2022-12-19T07:26:14.049Z,14.73
2022-12-19T07:29:35.944Z,14.50
2022-12-19T07:32:57.776Z,14.90
2022-12-19T07:36:19.681Z,14.43
2022-12-19T07:39:42.903Z,13.90
2022-12-19T07:43:05.906Z,14.03
2022-12-19T07:46:29.845Z,13.43
2022-12-19T07:49:51.340Z,13.57
2022-12-19T07:53:12.819Z,12.20
2022-12-19T07:56:35.947Z,13.60
2022-12-19T07:59:58.510Z,13.27
2022-12-19T08:03:20.310Z,13.13
2022-12-19T08:06:42.012Z,13.80
2022-12-19T08:10:03.865Z,13.27
2022-12-19T08:13:29.043Z,13.40
2022-12-19T08:20:34.399Z,13.10
2022-12-19T08:23:56.440Z,13.63
2022-12-19T08:27:18.806Z,12.83
2022-12-19T08:30:42.700Z,13.40
2022-12-19T08:34:04.168Z,13.60
2022-12-19T08:37:25.845Z,13.03
2022-12-19T08:40:53.622Z,14.50
2022-12-19T08:44:15.463Z,12.63
2022-12-19T08:47:38.532Z,13.50
2022-12-19T08:51:01.712Z,13.97
2022-12-19T08:54:23.571Z,13.93
2022-12-19T08:57:45.254Z,12.87
2022-12-19T09:01:09.989Z,15.67
2022-12-19T09:05:57.446Z,15.10
2022-12-19T09:08:14.848Z,13.53
2022-12-19T09:11:40.904Z,15.03
2022-12-19T09:15:10.523Z,13.60
2022-12-19T09:18:32.961Z,12.93
2022-12-19T09:21:55.650Z,12.53
2022-12-19T09:25:17.631Z,13.80
2022-12-19T09:28:40.937Z,12.60
2022-12-19T09:32:02.593Z,11.90
2022-12-19T09:35:28.535Z,13.03
2022-12-19T09:38:54.712Z,12.37
2022-12-19T09:42:29.365Z,11.87
2022-12-19T09:46:01.968Z,12.83
2022-12-19T09:49:25.817Z,12.40
2022-12-19T09:52:52.112Z,13.17
2022-12-19T09:56:16.769Z,12.63
2022-12-19T09:59:49.584Z,12.90
2022-12-19T10:03:22.891Z,12.57
2022-12-19T10:07:22.190Z,12.67
2022-12-19T10:12:46.407Z,12.60
2022-12-19T10:14:43.821Z,12.13
2022-12-19T10:18:31.078Z,11.93
2022-12-19T10:22:18.331Z,12.70
2022-12-19T10:25:52.701Z,12.77
2022-12-19T10:29:31.197Z,12.83
2022-12-19T10:33:01.728Z,12.00
2022-12-19T10:36:48.655Z,13.63
2022-12-19T10:40:27.664Z,12.70
2022-12-19T10:44:00.139Z,12.97
2022-12-19T10:47:23.279Z,13.23
2022-12-19T10:50:45.277Z,13.47
2022-12-19T10:54:06.708Z,13.23
2022-12-19T10:57:30.354Z,13.70
2022-12-19T11:01:05.124Z,15.10
2022-12-19T11:04:35.330Z,13.73
2022-12-19T11:08:03.713Z,13.43
2022-12-19T11:14:15.197Z,13.43
2022-12-19T11:20:18.975Z,12.70
2022-12-19T11:29:40.134Z,13.93
2022-12-19T11:29:40.836Z,14.83
2022-12-19T11:30:46.938Z,12.47
2022-12-19T11:34:07.567Z,14.10
2022-12-19T11:37:38.999Z,13.07
2022-12-19T11:41:10.867Z,14.07
2022-12-19T11:44:40.041Z,13.03
2022-12-19T11:48:10.467Z,13.33
2022-12-19T11:51:40.636Z,15.03
2022-12-19T11:55:07.460Z,13.80
2022-12-19T11:58:30.891Z,13.77
2022-12-19T12:02:31.420Z,13.73
2022-12-19T12:05:55.363Z,12.77
2022-12-19T12:13:52.072Z,13.90
2022-12-19T12:24:22.381Z,14.27
2022-12-19T12:31:07.991Z,14.47
2022-12-19T12:31:10.656Z,14.07
2022-12-19T12:31:22.107Z,14.80
2022-12-19T12:31:53.737Z,14.10
2022-12-19T12:35:42.373Z,13.93
2022-12-19T12:40:55.919Z,12.20
2022-12-19T12:44:18.459Z,12.53
2022-12-19T12:47:55.669Z,14.10
2022-12-19T12:51:18.550Z,12.43
2022-12-19T12:54:43.943Z,13.73
2022-12-19T12:58:09.178Z,13.80
2022-12-19T13:01:37.696Z,13.97
2022-12-19T13:05:02.146Z,13.60
2022-12-19T13:08:35.381Z,13.07
2022-12-19T13:12:20.456Z,13.33
2022-12-19T13:15:44.023Z,13.07
2022-12-19T13:19:20.974Z,12.83
2022-12-19T13:23:04.347Z,13.63
2022-12-19T13:26:51.124Z,13.80
2022-12-19T13:30:18.340Z,13.33
2022-12-19T13:33:47.108Z,13.33
2022-12-19T13:40:01.457Z,14.33
2022-12-19T13:41:47.665Z,14.27
2022-12-19T13:45:14.654Z,13.90
2022-12-19T13:48:42.649Z,13.37
2022-12-19T13:52:05.869Z,14.83
2022-12-19T13:55:29.989Z,14.23
2022-12-19T13:58:56.547Z,14.40
2022-12-19T14:02:27.130Z,13.93
2022-12-19T14:06:16.450Z,12.97
2022-12-19T14:11:26.902Z,13.87
2022-12-19T14:13:51.022Z,14.77
2022-12-19T14:17:22.977Z,15.40
2022-12-19T14:22:05.677Z,13.67
2022-12-19T14:24:26.344Z,14.87
2022-12-19T14:28:26.610Z,14.93
2022-12-19T14:31:36.967Z,14.67
2022-12-19T14:36:06.441Z,15.20
2022-12-19T14:39:23.728Z,14.70
2022-12-19T14:43:58.855Z,14.83
2022-12-19T14:54:03.376Z,14.77
2022-12-19T14:54:07.367Z,15.30
2022-12-19T14:58:51.119Z,16.27
2022-12-19T15:01:54.605Z,16.50
2022-12-19T15:05:18.374Z,16.17
2022-12-19T15:09:02.629Z,16.13
2022-12-19T15:13:47.196Z,14.97
2022-12-19T15:16:31.452Z,15.57
2022-12-19T15:19:53.609Z,13.90
2022-12-19T15:23:19.931Z,14.60
2022-12-19T15:26:48.929Z,13.10
2022-12-19T15:30:16.108Z,13.63
2022-12-19T15:33:48.072Z,14.33
2022-12-19T15:37:19.188Z,14.20
2022-12-19T15:40:42.884Z,13.53
2022-12-19T15:44:10.737Z,13.80
2022-12-19T15:47:34.553Z,14.13
2022-12-19T15:50:56.024Z,13.20
2022-12-19T15:58:02.425Z,13.87
2022-12-19T16:01:26.844Z,14.73
2022-12-19T16:04:49.944Z,14.27
2022-12-19T16:08:13.070Z,13.77
2022-12-19T16:11:34.711Z,13.97
2022-12-19T16:14:59.273Z,13.10
2022-12-19T16:18:22.701Z,13.77
2022-12-19T16:21:44.905Z,12.97
2022-12-19T16:25:07.673Z,12.80
2022-12-19T16:28:31.861Z,12.80
2022-12-19T16:31:54.945Z,12.47
2022-12-19T16:35:40.149Z,12.53
2022-12-19T16:39:02.050Z,12.53
2022-12-19T16:42:23.471Z,11.37
2022-12-19T16:45:45.991Z,12.27
2022-12-19T16:49:14.314Z,12.63
2022-12-19T16:52:42.350Z,12.27
2022-12-19T16:56:04.646Z,12.23
2022-12-19T16:59:31.841Z,12.67
2022-12-19T17:02:57.441Z,12.60
2022-12-19T17:06:20.937Z,12.90
2022-12-19T17:09:44.059Z,12.27
2022-12-19T17:13:06.015Z,12.70
2022-12-19T17:16:27.765Z,12.20
2022-12-19T17:19:49.441Z,12.80
2022-12-19T17:23:15.922Z,13.03
2022-12-19T17:26:38.931Z,12.90
2022-12-19T17:30:01.313Z,12.87
2022-12-19T17:33:26.809Z,12.47
2022-12-19T17:36:48.827Z,12.90
2022-12-19T17:40:17.699Z,13.60
2022-12-19T17:43:40.574Z,13.40
2022-12-19T17:47:02.407Z,13.63
2022-12-19T17:50:27.311Z,13.07
2022-12-19T17:53:49.466Z,13.10
2022-12-19T17:57:14.265Z,13.40
2022-12-19T18:00:37.140Z,13.30
2022-12-19T18:03:58.995Z,13.53
2022-12-19T18:07:20.841Z,13.43
2022-12-19T18:10:42.325Z,13.23
2022-12-19T18:14:04.248Z,13.40
2022-12-19T18:17:27.420Z,12.90
2022-12-19T18:20:50.096Z,13.93
2022-12-19T18:24:12.979Z,13.27
2022-12-19T18:27:34.547Z,12.63
2022-12-19T18:31:01.193Z,13.33
2022-12-19T18:34:26.099Z,13.23
2022-12-19T18:37:49.026Z,13.10
2022-12-19T18:41:11.923Z,14.53
2022-12-19T18:44:33.688Z,13.03
2022-12-19T18:47:58.524Z,12.83
2022-12-19T18:51:23.247Z,13.60
2022-12-19T18:54:44.978Z,13.00
2022-12-19T18:58:07.091Z,13.53
2022-12-19T19:01:28.620Z,12.77
2022-12-19T19:04:50.799Z,12.87
2022-12-19T19:08:18.336Z,13.07
2022-12-19T19:11:45.297Z,12.40
2022-12-19T19:15:07.976Z,13.43
2022-12-19T19:18:33.043Z,12.50
2022-12-19T19:21:55.369Z,13.20
2022-12-19T19:25:18.673Z,12.93
2022-12-19T19:28:40.162Z,12.10
2022-12-19T19:32:02.242Z,12.40
2022-12-19T19:35:24.388Z,12.90
2022-12-19T19:38:49.864Z,13.30
2022-12-19T19:42:12.582Z,13.57
2022-12-19T19:45:41.194Z,12.37
2022-12-19T19:49:04.796Z,12.40
2022-12-19T19:52:26.186Z,13.83
2022-12-19T19:55:55.929Z,13.63
2022-12-19T19:59:18.872Z,13.77
2022-12-19T20:02:40.796Z,13.87
2022-12-19T20:06:02.837Z,14.03
2022-12-19T20:09:24.416Z,13.97
2022-12-19T20:12:46.725Z,13.63
2022-12-19T20:16:12.168Z,13.60
2022-12-19T20:19:33.690Z,13.37
2022-12-19T20:22:55.517Z,15.13
2022-12-19T20:26:18.179Z,13.03
2022-12-19T20:29:39.899Z,13.13
2022-12-19T20:33:03.031Z,13.00
2022-12-19T20:36:25.484Z,12.57
2022-12-19T20:39:46.972Z,12.93
2022-12-19T20:43:08.813Z,13.13
2022-12-19T20:46:30.503Z,13.30
2022-12-19T20:49:53.589Z,13.07
2022-12-19T20:53:15.035Z,12.53
2022-12-19T20:56:37.167Z,13.13
2022-12-19T20:59:58.527Z,12.53
2022-12-19T21:03:29.461Z,12.23
2022-12-19T21:06:53.080Z,13.63
2022-12-19T21:10:14.845Z,13.10
2022-12-19T21:13:37.534Z,13.30
2022-12-19T21:16:59.192Z,14.20
2022-12-19T21:20:20.964Z,13.47
2022-12-19T21:23:44.839Z,12.17
2022-12-19T21:27:06.238Z,12.37
2022-12-19T21:30:27.811Z,13.47
2022-12-19T21:33:51.067Z,12.60
2022-12-19T21:37:12.364Z,12.73
2022-12-19T21:40:36.994Z,12.37
2022-12-19T21:44:00.475Z,12.20
2022-12-19T21:47:22.491Z,11.97
2022-12-19T21:50:44.419Z,11.83
2022-12-19T21:54:07.060Z,12.03
2022-12-19T21:57:29.821Z,12.00
2022-12-19T22:00:51.160Z,13.27
2022-12-19T22:04:15.337Z,12.77
2022-12-19T22:07:37.061Z,12.97
2022-12-19T22:10:58.706Z,12.43
2022-12-19T22:14:21.871Z,12.03
2022-12-19T22:17:43.868Z,12.43
2022-12-19T22:21:06.690Z,12.10
2022-12-19T22:24:28.162Z,12.63
2022-12-19T22:27:49.764Z,11.63
2022-12-19T22:31:21.270Z,11.77
2022-12-19T22:34:42.804Z,12.03
2022-12-19T22:38:04.662Z,12.20
2022-12-19T22:41:27.757Z,12.60
2022-12-19T22:44:49.411Z,12.13
2022-12-19T22:48:12.531Z,11.33
2022-12-19T22:51:35.571Z,12.47
2022-12-19T22:54:57.120Z,11.07
2022-12-19T22:58:18.800Z,12.10
2022-12-19T23:01:42.864Z,11.67
2022-12-19T23:05:07.105Z,13.03
2022-12-19T23:08:28.586Z,12.63
2022-12-19T23:11:50.705Z,12.13
2022-12-19T23:15:12.520Z,12.60
2022-12-19T23:18:34.279Z,13.33
2022-12-19T23:21:57.069Z,12.60
2022-12-19T23:25:18.846Z,12.53
2022-12-19T23:28:40.672Z,12.50
2022-12-19T23:32:02.563Z,12.63
2022-12-19T23:35:24.287Z,12.47
2022-12-19T23:38:47.500Z,12.70
2022-12-19T23:42:09.398Z,12.57
2022-12-19T23:45:31.085Z,12.97
2022-12-19T23:48:54.399Z,12.80
2022-12-19T23:52:16.244Z,12.40
2022-12-19T23:55:39.323Z,13.17
2022-12-19T23:59:01.535Z,12.37
